Time;durP1;ratioP1;P1;durP2;ratioP2;P2;SDS_P1;SDS_P2;PMS_P1;PMS_P2;Temp;Humidity;BMP_temperature;BMP_pressure;BME280_temperature;BME280_humidity;BME280_pressure;Samples;Min_cycle;Max_cycle;Signal;HPM_P1;HPM_P2
2024/02/02 00:01:33;;;;;;;14.60;7.50;;;;;;;;;;780084;177;820977;-62
2024/02/02 00:03:57;;;;;;;21.62;9.70;;;;;;;;;;781195;177;957832;-61
2024/02/02 00:06:23;;;;;;;14.57;7.90;;;;;;;;;;786080;177;917087;-62
2024/02/02 00:08:49;;;;;;;12.57;7.80;;;;;;;;;;780786;177;919289;-61
2024/02/02 00:11:14;;;;;;;14.00;6.90;;;;;;;;;;780383;178;928031;-62
2024/02/02 00:13:40;;;;;;;11.37;6.10;;;;;;;;;;782121;180;919555;-61
2024/02/02 00:16:06;;;;;;;13.50;5.13;;;;;;;;;;778049;178;923752;-63
2024/02/02 00:18:32;;;;;;;10.67;5.20;;;;;;;;;;778396;177;915844;-61
2024/02/02 00:20:58;;;;;;;16.40;6.47;;;;;;;;;;781168;177;919229;-62
2024/02/02 00:23:24;;;;;;;9.03;4.40;;;;;;;;;;784147;177;933840;-61
2024/02/02 00:25:50;;;;;;;24.90;5.93;;;;;;;;;;778016;177;924820;-61
2024/02/02 00:28:15;;;;;;;11.77;7.03;;;;;;;;;;779013;178;917958;-63
2024/02/02 00:30:41;;;;;;;8.13;4.50;;;;;;;;;;782714;178;918785;-61
2024/02/02 00:33:07;;;;;;;11.80;3.93;;;;;;;;;;782678;177;917788;-61
2024/02/02 00:35:33;;;;;;;8.90;3.77;;;;;;;;;;786031;176;877248;-61
2024/02/02 00:37:59;;;;;;;13.60;3.70;;;;;;;;;;787853;177;817846;-63
2024/02/02 00:40:25;;;;;;;6.90;3.90;;;;;;;;;;780727;177;921894;-64
2024/02/02 00:42:50;;;;;;;7.00;5.10;;;;;;;;;;779818;177;919222;-62
2024/02/02 00:45:16;;;;;;;8.30;4.07;;;;;;;;;;779235;177;918568;-62
2024/02/02 00:47:42;;;;;;;14.10;5.07;;;;;;;;;;780952;179;918901;-64
2024/02/02 00:50:10;;;;;;;14.37;4.10;;;;;;;;;;776607;177;918185;-63
2024/02/02 00:52:34;;;;;;;10.47;3.80;;;;;;;;;;781158;177;896104;-61
2024/02/02 00:55:00;;;;;;;12.73;3.60;;;;;;;;;;782933;178;913880;-62
2024/02/02 00:57:26;;;;;;;10.70;4.17;;;;;;;;;;776960;178;920166;-62
2024/02/02 00:59:53;;;;;;;17.77;3.95;;;;;;;;;;776739;178;918828;-63
2024/02/02 01:02:18;;;;;;;9.00;4.07;;;;;;;;;;785524;178;817355;-65
2024/02/02 01:04:44;;;;;;;9.52;3.92;;;;;;;;;;780070;178;821311;-64
2024/02/02 01:07:10;;;;;;;9.60;3.70;;;;;;;;;;777748;177;920719;-62
2024/02/02 01:09:35;;;;;;;6.50;3.40;;;;;;;;;;781308;177;918030;-64
2024/02/02 01:12:01;;;;;;;13.07;3.10;;;;;;;;;;782028;177;920760;-64
2024/02/02 01:14:27;;;;;;;6.60;3.40;;;;;;;;;;776871;177;917713;-63
2024/02/02 01:16:53;;;;;;;13.03;4.37;;;;;;;;;;777329;178;918328;-63
2024/02/02 01:19:19;;;;;;;10.83;4.40;;;;;;;;;;784207;176;830583;-63
2024/02/02 01:21:45;;;;;;;6.50;3.10;;;;;;;;;;781573;177;919038;-63
2024/02/02 01:24:10;;;;;;;12.33;3.80;;;;;;;;;;778376;176;919715;-62
2024/02/02 01:26:36;;;;;;;13.23;3.80;;;;;;;;;;785910;178;813715;-63
2024/02/02 01:29:02;;;;;;;11.13;3.37;;;;;;;;;;772948;178;2044207;-64
2024/02/02 01:31:28;;;;;;;7.07;3.47;;;;;;;;;;779389;178;917427;-63
2024/02/02 01:33:55;;;;;;;14.57;3.50;;;;;;;;;;786043;177;917135;-63
2024/02/02 01:36:20;;;;;;;8.33;3.00;;;;;;;;;;784083;177;937096;-64
2024/02/02 01:38:50;;;;;;;8.73;2.60;;;;;;;;;;777389;177;918995;-63
2024/02/02 01:41:11;;;;;;;14.93;4.23;;;;;;;;;;778963;178;850571;-65
2024/02/02 01:43:37;;;;;;;7.20;2.33;;;;;;;;;;790980;177;920218;-64
2024/02/02 01:46:03;;;;;;;8.03;3.53;;;;;;;;;;779789;177;916187;-63
2024/02/02 01:48:29;;;;;;;17.27;3.13;;;;;;;;;;779619;177;919633;-62
2024/02/02 01:50:55;;;;;;;10.27;3.20;;;;;;;;;;785207;177;919686;-64
2024/02/02 01:53:21;;;;;;;11.20;3.20;;;;;;;;;;781803;177;920244;-63
2024/02/02 01:55:46;;;;;;;9.50;3.47;;;;;;;;;;779830;178;918711;-64
2024/02/02 01:58:13;;;;;;;11.50;2.90;;;;;;;;;;788258;177;914296;-66
2024/02/02 02:00:38;;;;;;;8.37;2.73;;;;;;;;;;780417;177;916104;-64
2024/02/02 02:03:04;;;;;;;10.37;3.27;;;;;;;;;;781033;175;914015;-64
2024/02/02 02:05:30;;;;;;;10.63;3.80;;;;;;;;;;783504;178;847497;-64
2024/02/02 02:07:56;;;;;;;6.93;2.93;;;;;;;;;;781351;175;1024961;-65
2024/02/02 02:10:24;;;;;;;8.37;3.23;;;;;;;;;;778847;178;919091;-65
2024/02/02 02:12:50;;;;;;;13.10;4.10;;;;;;;;;;778005;177;919214;-64
2024/02/02 02:15:14;;;;;;;12.30;2.93;;;;;;;;;;778786;178;919341;-63
2024/02/02 02:17:39;;;;;;;7.50;3.27;;;;;;;;;;778532;177;918862;-64
2024/02/02 02:20:07;;;;;;;12.13;3.77;;;;;;;;;;778379;177;816410;-63
2024/02/02 02:22:33;;;;;;;11.03;3.10;;;;;;;;;;781550;177;919186;-66
2024/02/02 02:24:58;;;;;;;5.65;2.45;;;;;;;;;;779025;177;876942;-65
2024/02/02 02:27:24;;;;;;;11.90;3.57;;;;;;;;;;780824;177;918073;-63
2024/02/02 02:29:50;;;;;;;11.67;3.10;;;;;;;;;;784983;178;921718;-63
2024/02/02 02:32:16;;;;;;;10.00;3.90;;;;;;;;;;778256;178;920215;-65
2024/02/02 02:34:42;;;;;;;9.30;2.80;;;;;;;;;;780249;178;913157;-64
2024/02/02 02:37:08;;;;;;;9.07;3.20;;;;;;;;;;779604;177;824432;-65
2024/02/02 02:39:33;;;;;;;8.63;2.33;;;;;;;;;;783413;177;910308;-65
2024/02/02 02:42:00;;;;;;;9.23;3.20;;;;;;;;;;777601;177;922810;-64
2024/02/02 02:44:26;;;;;;;16.10;3.20;;;;;;;;;;779314;176;816662;-64
2024/02/02 02:46:51;;;;;;;18.40;3.53;;;;;;;;;;790671;176;817784;-65
2024/02/02 02:49:17;;;;;;;10.03;4.30;;;;;;;;;;781021;177;917274;-66
2024/02/02 02:51:43;;;;;;;20.20;3.73;;;;;;;;;;780930;177;1020183;-66
2024/02/02 02:54:09;;;;;;;7.35;3.30;;;;;;;;;;783310;177;914822;-64
2024/02/02 02:56:34;;;;;;;7.37;2.73;;;;;;;;;;777004;177;958612;-65
2024/02/02 02:59:01;;;;;;;12.57;3.25;;;;;;;;;;780416;177;914522;-64
2024/02/02 03:01:26;;;;;;;9.23;2.97;;;;;;;;;;780929;176;918754;-65
2024/02/02 03:03:52;;;;;;;13.27;4.77;;;;;;;;;;782935;179;819857;-65
2024/02/02 03:06:18;;;;;;;13.97;3.60;;;;;;;;;;776400;177;920167;-65
2024/02/02 03:08:44;;;;;;;10.80;2.53;;;;;;;;;;780715;178;918285;-65
2024/02/02 03:11:09;;;;;;;12.53;3.63;;;;;;;;;;784856;178;816908;-67
2024/02/02 03:13:35;;;;;;;10.70;3.00;;;;;;;;;;777710;178;919191;-67
2024/02/02 03:16:01;;;;;;;12.37;3.93;;;;;;;;;;782120;177;917318;-65
2024/02/02 03:18:27;;;;;;;9.83;3.87;;;;;;;;;;786614;178;965789;-66
2024/02/02 03:20:53;;;;;;;11.60;2.60;;;;;;;;;;779920;178;918444;-65
2024/02/02 03:23:19;;;;;;;9.68;3.92;;;;;;;;;;781435;177;816981;-65
2024/02/02 03:25:45;;;;;;;12.40;3.50;;;;;;;;;;784893;178;889075;-65
2024/02/02 03:28:10;;;;;;;14.20;3.70;;;;;;;;;;779006;178;904910;-64
2024/02/02 03:30:36;;;;;;;9.60;2.93;;;;;;;;;;776421;178;918598;-67
2024/02/02 03:33:02;;;;;;;11.57;3.97;;;;;;;;;;780178;178;920664;-66
2024/02/02 03:35:28;;;;;;;10.70;3.83;;;;;;;;;;783972;178;921257;-65
2024/02/02 03:37:54;;;;;;;14.77;4.90;;;;;;;;;;780720;177;920414;-65
2024/02/02 03:40:20;;;;;;;9.60;3.27;;;;;;;;;;778494;178;918382;-65
2024/02/02 03:42:45;;;;;;;7.00;2.47;;;;;;;;;;785030;178;773665;-65
2024/02/02 03:45:11;;;;;;;11.70;3.40;;;;;;;;;;779834;178;918913;-65
2024/02/02 03:47:37;;;;;;;16.80;2.95;;;;;;;;;;780102;178;922478;-65
2024/02/02 03:50:03;;;;;;;11.70;4.17;;;;;;;;;;788417;175;812503;-65
2024/02/02 03:52:29;;;;;;;13.00;3.93;;;;;;;;;;780518;178;917857;-65
2024/02/02 03:54:55;;;;;;;15.65;3.50;;;;;;;;;;780741;178;917910;-66
2024/02/02 03:57:21;;;;;;;7.73;3.50;;;;;;;;;;781673;178;918493;-64
2024/02/02 03:59:47;;;;;;;7.43;3.07;;;;;;;;;;780535;179;919956;-65
2024/02/02 04:02:12;;;;;;;9.40;3.00;;;;;;;;;;780172;178;918406;-64
2024/02/02 04:04:39;;;;;;;9.57;4.68;;;;;;;;;;777670;178;919828;-65
2024/02/02 04:07:04;;;;;;;11.13;4.30;;;;;;;;;;783321;177;920018;-65
2024/02/02 04:09:30;;;;;;;15.23;4.20;;;;;;;;;;778779;177;1021553;-65
2024/02/02 04:11:56;;;;;;;10.03;3.90;;;;;;;;;;781353;176;903568;-65
2024/02/02 04:14:22;;;;;;;7.67;3.53;;;;;;;;;;788629;176;786942;-65
2024/02/02 04:16:48;;;;;;;9.83;3.53;;;;;;;;;;780068;177;918983;-65
2024/02/02 04:19:17;;;;;;;15.20;6.40;;;;;;;;;;779104;175;899364;-65
2024/02/02 04:21:39;;;;;;;10.70;3.30;;;;;;;;;;786670;178;882654;-65
2024/02/02 04:24:05;;;;;;;8.43;3.00;;;;;;;;;;780931;178;930644;-66
2024/02/02 04:26:31;;;;;;;15.97;3.90;;;;;;;;;;778605;179;817988;-66
2024/02/02 04:28:57;;;;;;;11.13;4.90;;;;;;;;;;780468;174;1004178;-66
2024/02/02 04:31:23;;;;;;;10.03;3.87;;;;;;;;;;784782;177;913418;-66
2024/02/02 04:33:49;;;;;;;11.17;4.20;;;;;;;;;;779481;178;920735;-65
2024/02/02 04:36:14;;;;;;;17.00;4.10;;;;;;;;;;779574;178;907574;-66
2024/02/02 04:38:41;;;;;;;14.00;4.60;;;;;;;;;;784343;177;924327;-66
2024/02/02 04:41:06;;;;;;;16.63;4.50;;;;;;;;;;786437;177;916257;-67
2024/02/02 04:43:32;;;;;;;17.62;4.50;;;;;;;;;;781640;177;914882;-67
2024/02/02 04:45:58;;;;;;;11.33;4.97;;;;;;;;;;785621;178;828285;-65
2024/02/02 04:48:24;;;;;;;12.88;3.42;;;;;;;;;;780552;178;915216;-67
2024/02/02 04:50:49;;;;;;;8.73;4.00;;;;;;;;;;777526;178;929558;-67
2024/02/02 04:53:15;;;;;;;13.20;3.70;;;;;;;;;;777776;177;918839;-66
2024/02/02 04:55:41;;;;;;;15.10;3.93;;;;;;;;;;786337;177;917726;-66
2024/02/02 04:58:07;;;;;;;9.10;3.90;;;;;;;;;;779133;177;917474;-65
2024/02/02 05:00:33;;;;;;;9.10;3.90;;;;;;;;;;778754;177;909276;-65
2024/02/02 05:02:59;;;;;;;12.18;4.50;;;;;;;;;;784684;178;919119;-65
2024/02/02 05:05:25;;;;;;;17.20;4.77;;;;;;;;;;778831;178;920194;-65
2024/02/02 05:07:50;;;;;;;13.63;4.43;;;;;;;;;;777652;178;919184;-66
2024/02/02 05:10:16;;;;;;;16.37;4.50;;;;;;;;;;784439;178;886033;-65
2024/02/02 05:12:42;;;;;;;9.97;3.60;;;;;;;;;;780268;178;914572;-64
2024/02/02 05:15:08;;;;;;;19.57;5.60;;;;;;;;;;779184;177;814608;-67
2024/02/02 05:17:34;;;;;;;8.60;3.67;;;;;;;;;;783754;178;919155;-67
2024/02/02 05:20:02;;;;;;;14.73;4.63;;;;;;;;;;777574;176;1021027;-65
2024/02/02 05:22:26;;;;;;;11.63;5.17;;;;;;;;;;778054;177;918732;-67
2024/02/02 05:24:52;;;;;;;14.90;4.80;;;;;;;;;;780316;175;920380;-66
2024/02/02 05:27:17;;;;;;;18.73;6.00;;;;;;;;;;778526;180;919319;-67
2024/02/02 05:29:44;;;;;;;11.03;4.87;;;;;;;;;;783342;177;918492;-66
2024/02/02 05:32:09;;;;;;;10.63;4.60;;;;;;;;;;778575;178;935952;-67
2024/02/02 05:34:35;;;;;;;19.50;6.30;;;;;;;;;;782386;178;926485;-67
2024/02/02 05:37:01;;;;;;;14.47;4.83;;;;;;;;;;781575;178;818575;-66
2024/02/02 05:39:27;;;;;;;7.13;3.63;;;;;;;;;;779579;178;821552;-66
2024/02/02 05:41:54;;;;;;;13.57;4.87;;;;;;;;;;784439;178;917484;-67
2024/02/02 05:44:18;;;;;;;13.40;6.20;;;;;;;;;;777018;177;880008;-67
2024/02/02 05:46:44;;;;;;;10.30;4.43;;;;;;;;;;777431;178;900232;-66
2024/02/02 05:49:10;;;;;;;19.20;5.37;;;;;;;;;;786335;177;915683;-70
2024/02/02 05:51:36;;;;;;;7.60;4.33;;;;;;;;;;780319;177;918994;-67
2024/02/02 05:54:02;;;;;;;19.33;4.40;;;;;;;;;;780067;174;918340;-65
2024/02/02 05:56:28;;;;;;;12.33;4.33;;;;;;;;;;776549;178;941530;-65
2024/02/02 05:58:53;;;;;;;11.90;4.00;;;;;;;;;;784722;176;890069;-67
2024/02/02 06:01:19;;;;;;;13.87;4.67;;;;;;;;;;778314;178;921335;-65
2024/02/02 06:03:45;;;;;;;12.02;5.72;;;;;;;;;;779235;177;858797;-67
2024/02/02 06:06:11;;;;;;;11.23;3.50;;;;;;;;;;784214;178;915092;-66
2024/02/02 06:08:37;;;;;;;11.53;3.17;;;;;;;;;;779578;177;851198;-65
2024/02/02 06:11:03;;;;;;;9.13;4.00;;;;;;;;;;778945;177;918932;-65
2024/02/02 06:13:29;;;;;;;19.13;4.77;;;;;;;;;;783779;178;910184;-65
2024/02/02 06:15:55;;;;;;;14.97;4.00;;;;;;;;;;779953;178;917891;-65
2024/02/02 06:18:21;;;;;;;10.70;4.30;;;;;;;;;;778843;178;1021763;-65
2024/02/02 06:20:47;;;;;;;13.37;4.70;;;;;;;;;;778904;178;921322;-66
2024/02/02 06:23:12;;;;;;;12.07;4.30;;;;;;;;;;783732;176;1017808;-64
2024/02/02 06:25:38;;;;;;;17.20;5.77;;;;;;;;;;783622;177;916175;-65
2024/02/02 06:28:04;;;;;;;12.20;5.17;;;;;;;;;;779863;178;915405;-65
2024/02/02 06:30:30;;;;;;;16.93;6.13;;;;;;;;;;786146;177;888795;-65
2024/02/02 06:32:59;;;;;;;14.00;5.30;;;;;;;;;;785913;175;912987;-66
2024/02/02 06:35:23;;;;;;;9.00;4.47;;;;;;;;;;781453;177;818052;-67
2024/02/02 06:37:49;;;;;;;7.30;4.43;;;;;;;;;;786717;177;914400;-67
2024/02/02 06:40:14;;;;;;;9.87;4.50;;;;;;;;;;777405;177;914452;-65
2024/02/02 06:42:40;;;;;;;18.83;5.23;;;;;;;;;;779126;178;914055;-65
2024/02/02 06:45:07;;;;;;;9.60;4.62;;;;;;;;;;786274;177;855233;-65
2024/02/02 06:47:33;;;;;;;14.67;4.10;;;;;;;;;;785155;177;806313;-66
2024/02/02 06:49:58;;;;;;;10.17;3.70;;;;;;;;;;776414;177;919262;-65
2024/02/02 06:52:24;;;;;;;9.80;4.37;;;;;;;;;;777922;178;923809;-67
2024/02/02 06:54:50;;;;;;;12.43;3.70;;;;;;;;;;788075;178;780235;-66
2024/02/02 06:57:16;;;;;;;19.33;3.90;;;;;;;;;;778249;178;919691;-65
2024/02/02 06:59:42;;;;;;;13.40;4.10;;;;;;;;;;781537;177;898845;-65
2024/02/02 07:02:13;;;;;;;9.27;3.57;;;;;;;;;;787234;178;918002;-68
2024/02/02 07:04:39;;;;;;;9.07;3.03;;;;;;;;;;783648;178;815504;-67
2024/02/02 07:07:05;;;;;;;13.43;3.50;;;;;;;;;;779240;177;917835;-66
2024/02/02 07:09:31;;;;;;;8.27;3.33;;;;;;;;;;779236;178;914647;-66
2024/02/02 07:11:58;;;;;;;6.67;3.17;;;;;;;;;;781679;177;919230;-66
2024/02/02 07:14:39;;;;;;;8.00;3.30;;;;;;;;;;776889;178;920967;-68
2024/02/02 07:17:05;;;;;;;14.30;4.20;;;;;;;;;;771971;177;920815;-68
2024/02/02 07:19:31;;;;;;;9.10;3.87;;;;;;;;;;777031;178;1010183;-67
2024/02/02 07:21:57;;;;;;;12.10;3.53;;;;;;;;;;782385;178;818238;-67
2024/02/02 07:24:23;;;;;;;13.40;5.60;;;;;;;;;;779327;176;993622;-67
2024/02/02 07:26:49;;;;;;;6.27;4.40;;;;;;;;;;778130;178;925863;-69
2024/02/02 07:29:15;;;;;;;9.00;3.73;;;;;;;;;;783634;177;914249;-68
2024/02/02 07:31:41;;;;;;;16.60;3.73;;;;;;;;;;778301;178;922287;-68
2024/02/02 07:34:12;;;;;;;12.40;3.25;;;;;;;;;;778495;178;840453;-68
2024/02/02 07:36:38;;;;;;;15.33;3.87;;;;;;;;;;778148;177;918655;-67
2024/02/02 07:39:04;;;;;;;10.93;3.80;;;;;;;;;;783435;178;914543;-67
2024/02/02 07:41:30;;;;;;;10.77;3.80;;;;;;;;;;777268;178;918706;-66
2024/02/02 07:43:56;;;;;;;11.52;4.07;;;;;;;;;;779397;178;853710;-70
2024/02/02 07:46:22;;;;;;;11.53;4.70;;;;;;;;;;786843;177;917803;-68
2024/02/02 07:48:48;;;;;;;15.40;4.33;;;;;;;;;;781547;177;918214;-67
2024/02/02 07:51:15;;;;;;;9.63;4.63;;;;;;;;;;781099;177;876755;-66
2024/02/02 07:53:40;;;;;;;14.90;4.13;;;;;;;;;;780449;177;919368;-68
2024/02/02 07:56:05;;;;;;;11.83;5.07;;;;;;;;;;779267;177;919170;-68
2024/02/02 07:58:31;;;;;;;8.80;4.23;;;;;;;;;;777174;178;919938;-66
2024/02/02 08:00:57;;;;;;;8.57;3.92;;;;;;;;;;776645;178;917783;-67
2024/02/02 08:03:23;;;;;;;9.60;3.27;;;;;;;;;;784840;178;918142;-67
2024/02/02 08:05:49;;;;;;;10.90;3.60;;;;;;;;;;779527;178;918995;-67
2024/02/02 08:08:15;;;;;;;9.33;4.20;;;;;;;;;;779263;177;1019325;-68
2024/02/02 08:10:42;;;;;;;10.87;4.27;;;;;;;;;;786255;178;816669;-67
2024/02/02 08:13:09;;;;;;;10.90;4.03;;;;;;;;;;781429;176;920129;-67
2024/02/02 08:15:35;;;;;;;14.93;4.77;;;;;;;;;;782020;177;724475;-67
2024/02/02 08:18:01;;;;;;;7.83;4.00;;;;;;;;;;783220;176;921068;-68
2024/02/02 08:20:27;;;;;;;13.43;4.50;;;;;;;;;;778822;179;920720;-68
2024/02/02 08:22:52;;;;;;;17.73;3.73;;;;;;;;;;787364;175;923823;-68
2024/02/02 08:25:18;;;;;;;9.67;4.50;;;;;;;;;;776468;178;919263;-66
2024/02/02 08:27:44;;;;;;;16.40;6.80;;;;;;;;;;780946;175;816163;-67
2024/02/02 08:30:12;;;;;;;12.07;4.30;;;;;;;;;;778865;177;919097;-67
2024/02/02 08:32:37;;;;;;;12.63;4.33;;;;;;;;;;777368;178;1097235;-68
2024/02/02 08:35:03;;;;;;;13.83;5.83;;;;;;;;;;786618;178;699211;-68
2024/02/02 08:37:28;;;;;;;16.30;4.60;;;;;;;;;;778406;178;916620;-68
2024/02/02 08:39:56;;;;;;;9.43;3.90;;;;;;;;;;777102;178;916964;-69
2024/02/02 08:42:22;;;;;;;11.45;4.62;;;;;;;;;;780901;177;918456;-68
2024/02/02 08:44:47;;;;;;;9.47;4.40;;;;;;;;;;776876;176;892758;-68
2024/02/02 08:47:13;;;;;;;9.60;6.30;;;;;;;;;;779775;177;925424;-68
2024/02/02 08:49:45;;;;;;;9.67;4.33;;;;;;;;;;777931;177;915997;-68
2024/02/02 08:52:12;;;;;;;15.20;4.73;;;;;;;;;;781139;178;918648;-69
2024/02/02 08:54:37;;;;;;;12.47;5.10;;;;;;;;;;783613;178;908760;-69
2024/02/02 08:57:05;;;;;;;13.47;5.50;;;;;;;;;;783128;177;893842;-69
2024/02/02 08:59:32;;;;;;;15.97;6.00;;;;;;;;;;781032;177;646931;-69
2024/02/02 09:01:58;;;;;;;11.73;4.40;;;;;;;;;;788188;177;815232;-69
2024/02/02 09:04:28;;;;;;;7.80;4.80;;;;;;;;;;778812;179;918309;-69
2024/02/02 09:06:54;;;;;;;14.30;5.10;;;;;;;;;;781034;178;1021427;-68
2024/02/02 09:09:20;;;;;;;10.90;5.43;;;;;;;;;;790191;177;628400;-68
2024/02/02 09:11:46;;;;;;;22.80;5.63;;;;;;;;;;784049;178;918693;-68
2024/02/02 09:14:15;;;;;;;12.93;4.80;;;;;;;;;;776383;177;919341;-68
2024/02/02 09:16:38;;;;;;;17.53;5.90;;;;;;;;;;780150;177;919083;-68
2024/02/02 09:19:03;;;;;;;11.87;5.00;;;;;;;;;;779212;180;620990;-67
2024/02/02 09:21:29;;;;;;;9.97;5.23;;;;;;;;;;782921;177;918922;-68
2024/02/02 09:23:55;;;;;;;10.43;4.13;;;;;;;;;;783609;178;618599;-68
2024/02/02 09:26:21;;;;;;;19.47;6.53;;;;;;;;;;787253;178;640449;-68
2024/02/02 09:28:47;;;;;;;9.97;4.70;;;;;;;;;;781523;179;635544;-68
2024/02/02 09:31:13;;;;;;;11.10;4.77;;;;;;;;;;781322;177;621850;-69
2024/02/02 09:33:45;;;;;;;11.90;4.57;;;;;;;;;;786732;175;625349;-68
2024/02/02 09:36:11;;;;;;;9.30;4.72;;;;;;;;;;786455;177;817177;-69
2024/02/02 09:38:37;;;;;;;8.10;4.47;;;;;;;;;;777269;178;917575;-68
2024/02/02 09:41:03;;;;;;;12.60;4.87;;;;;;;;;;778092;178;919531;-68
2024/02/02 09:43:31;;;;;;;12.10;5.30;;;;;;;;;;782900;178;922482;-69
2024/02/02 09:45:57;;;;;;;14.00;5.40;;;;;;;;;;788488;177;731531;-70
2024/02/02 09:48:37;;;;;;;13.87;5.73;;;;;;;;;;780189;178;914510;-68
2024/02/02 09:51:04;;;;;;;12.73;5.17;;;;;;;;;;780759;179;625444;-69
2024/02/02 09:53:32;;;;;;;10.37;5.20;;;;;;;;;;785205;178;617908;-69
2024/02/02 09:56:04;;;;;;;10.37;4.70;;;;;;;;;;785242;178;651510;-69
2024/02/02 09:58:30;;;;;;;18.80;3.80;;;;;;;;;;781892;178;699445;-70
2024/02/02 10:00:57;;;;;;;9.43;4.47;;;;;;;;;;780381;178;641052;-70
2024/02/02 10:03:23;;;;;;;9.60;5.27;;;;;;;;;;786361;178;632676;-69
2024/02/02 10:05:51;;;;;;;21.90;5.20;;;;;;;;;;777506;178;1763863;-68
2024/02/02 10:08:34;;;;;;;11.30;5.13;;;;;;;;;;786949;175;632655;-68
2024/02/02 10:11:05;;;;;;;10.60;4.67;;;;;;;;;;773617;177;661912;-67
2024/02/02 10:13:34;;;;;;;16.23;6.63;;;;;;;;;;783153;177;624397;-68
2024/02/02 10:16:10;;;;;;;12.20;5.43;;;;;;;;;;785393;178;636776;-67
2024/02/02 10:18:44;;;;;;;18.87;5.90;;;;;;;;;;776936;178;811187;-67
2024/02/02 10:21:25;;;;;;;10.87;5.03;;;;;;;;;;781788;178;624984;-67
2024/02/02 10:24:05;;;;;;;17.63;7.20;;;;;;;;;;783996;178;644077;-66
2024/02/02 10:26:37;;;;;;;10.67;5.67;;;;;;;;;;772694;177;918415;-66
2024/02/02 10:29:10;;;;;;;13.57;5.23;;;;;;;;;;778603;177;912014;-67
2024/02/02 10:31:36;;;;;;;12.80;6.20;;;;;;;;;;780030;178;626310;-67
2024/02/02 10:34:03;;;;;;;12.37;5.47;;;;;;;;;;783672;177;632264;-67
2024/02/02 10:36:32;;;;;;;11.07;5.30;;;;;;;;;;784942;178;636259;-67
2024/02/02 10:39:17;;;;;;;18.80;5.80;;;;;;;;;;781993;178;650737;-66
2024/02/02 10:41:48;;;;;;;11.57;6.00;;;;;;;;;;785015;178;636027;-66
2024/02/02 10:44:31;;;;;;;12.03;5.67;;;;;;;;;;783529;176;811565;-67
2024/02/02 10:47:13;;;;;;;16.07;5.67;;;;;;;;;;776325;177;859288;-67
2024/02/02 10:49:45;;;;;;;17.40;4.90;;;;;;;;;;772815;179;1066877;-68
2024/02/02 10:52:17;;;;;;;12.83;6.50;;;;;;;;;;785370;178;649092;-67
2024/02/02 10:54:43;;;;;;;11.40;5.13;;;;;;;;;;784060;178;726482;-65
2024/02/02 10:57:09;;;;;;;19.77;5.70;;;;;;;;;;783496;178;631783;-65
2024/02/02 10:59:51;;;;;;;13.20;6.27;;;;;;;;;;783497;178;636821;-67
2024/02/02 11:02:32;;;;;;;11.30;5.37;;;;;;;;;;778349;177;652973;-67
2024/02/02 11:05:14;;;;;;;15.33;6.00;;;;;;;;;;776993;179;618778;-66
2024/02/02 11:07:41;;;;;;;13.17;5.10;;;;;;;;;;784720;177;663163;-66
2024/02/02 11:10:07;;;;;;;17.53;5.83;;;;;;;;;;789483;178;687977;-66
2024/02/02 11:12:38;;;;;;;19.27;7.30;;;;;;;;;;779937;178;643239;-66
2024/02/02 11:15:06;;;;;;;13.83;5.93;;;;;;;;;;780394;177;649856;-66
2024/02/02 11:17:33;;;;;;;9.13;5.40;;;;;;;;;;781755;178;745743;-66
2024/02/02 11:20:03;;;;;;;14.80;5.53;;;;;;;;;;791106;176;638925;-66
2024/02/02 11:22:29;;;;;;;18.97;6.90;;;;;;;;;;787660;177;640938;-65
2024/02/02 11:25:06;;;;;;;13.43;5.83;;;;;;;;;;784247;177;639036;-66
2024/02/02 11:27:35;;;;;;;12.50;5.70;;;;;;;;;;785178;177;627348;-66
2024/02/02 11:30:02;;;;;;;14.90;5.67;;;;;;;;;;787099;178;628293;-66
2024/02/02 11:32:43;;;;;;;13.03;5.50;;;;;;;;;;784892;176;627932;-67
2024/02/02 11:35:21;;;;;;;17.50;5.40;;;;;;;;;;786452;177;622302;-66
2024/02/02 11:37:52;;;;;;;11.53;5.37;;;;;;;;;;783655;178;616534;-65
2024/02/02 11:40:20;;;;;;;13.77;6.18;;;;;;;;;;783246;178;811571;-66
2024/02/02 11:42:44;;;;;;;15.10;5.63;;;;;;;;;;779455;175;912489;-65
2024/02/02 11:45:11;;;;;;;11.40;5.00;;;;;;;;;;790950;177;636805;-66
2024/02/02 11:47:37;;;;;;;9.70;5.30;;;;;;;;;;779235;178;918653;-66
2024/02/02 11:50:05;;;;;;;12.50;5.73;;;;;;;;;;783467;176;819583;-67
2024/02/02 11:52:32;;;;;;;13.93;5.60;;;;;;;;;;784450;178;632065;-66
2024/02/02 11:54:58;;;;;;;11.13;5.80;;;;;;;;;;783349;177;625615;-67
2024/02/02 11:57:24;;;;;;;14.00;5.40;;;;;;;;;;784872;178;633980;-65
2024/02/02 11:59:50;;;;;;;17.33;6.60;;;;;;;;;;779595;178;918227;-66
2024/02/02 12:02:18;;;;;;;14.80;5.57;;;;;;;;;;777897;179;915915;-65
2024/02/02 12:04:45;;;;;;;11.53;5.37;;;;;;;;;;782243;177;836722;-65
2024/02/02 12:07:16;;;;;;;11.93;5.53;;;;;;;;;;777288;178;919321;-66
2024/02/02 12:09:42;;;;;;;13.50;5.03;;;;;;;;;;781667;178;920258;-66
2024/02/02 12:12:08;;;;;;;19.07;6.97;;;;;;;;;;773568;177;910371;-66
2024/02/02 12:14:34;;;;;;;11.33;5.97;;;;;;;;;;778709;178;919180;-66
2024/02/02 12:17:00;;;;;;;15.50;5.10;;;;;;;;;;777818;178;918285;-65
2024/02/02 12:19:26;;;;;;;11.23;4.67;;;;;;;;;;783261;178;819602;-65
2024/02/02 12:21:52;;;;;;;10.60;5.70;;;;;;;;;;778287;177;922306;-65
2024/02/02 12:24:18;;;;;;;13.63;8.20;;;;;;;;;;765770;176;918932;-64
2024/02/02 12:26:44;;;;;;;12.77;6.73;;;;;;;;;;785272;176;920406;-66
2024/02/02 12:29:09;;;;;;;12.43;6.03;;;;;;;;;;782652;177;819637;-65
2024/02/02 12:31:35;;;;;;;19.93;5.70;;;;;;;;;;784349;176;816711;-66
2024/02/02 12:34:02;;;;;;;18.00;5.80;;;;;;;;;;783208;177;921266;-65
2024/02/02 12:36:27;;;;;;;12.80;6.57;;;;;;;;;;778470;177;917117;-67
2024/02/02 12:38:53;;;;;;;17.03;5.33;;;;;;;;;;778462;177;1016173;-65
2024/02/02 12:41:19;;;;;;;12.97;6.33;;;;;;;;;;788422;177;637296;-65
2024/02/02 12:43:46;;;;;;;16.13;5.60;;;;;;;;;;785377;179;718884;-66
2024/02/02 12:46:12;;;;;;;11.53;5.80;;;;;;;;;;778811;177;918672;-65
2024/02/02 12:48:38;;;;;;;19.87;7.83;;;;;;;;;;782282;178;618879;-67
2024/02/02 12:51:05;;;;;;;10.83;5.40;;;;;;;;;;787071;177;626855;-65
2024/02/02 12:53:30;;;;;;;15.30;6.47;;;;;;;;;;782405;178;713261;-65
2024/02/02 12:55:56;;;;;;;15.13;6.20;;;;;;;;;;780775;178;918192;-64
2024/02/02 12:58:21;;;;;;;15.20;6.43;;;;;;;;;;786282;178;615246;-66
2024/02/02 13:00:47;;;;;;;16.73;6.07;;;;;;;;;;777735;177;921949;-65
2024/02/02 13:03:13;;;;;;;13.03;5.67;;;;;;;;;;779111;177;814025;-66
2024/02/02 13:05:39;;;;;;;18.48;6.87;;;;;;;;;;780307;177;911512;-66
2024/02/02 13:08:05;;;;;;;16.00;5.27;;;;;;;;;;789294;175;816024;-67
2024/02/02 13:10:49;;;;;;;10.90;5.30;;;;;;;;;;778775;178;913855;-66
2024/02/02 13:13:20;;;;;;;13.57;5.30;;;;;;;;;;779038;177;911715;-64
2024/02/02 13:15:46;;;;;;;14.30;6.17;;;;;;;;;;778860;176;913244;-65
2024/02/02 13:18:12;;;;;;;10.93;6.30;;;;;;;;;;784440;178;915348;-66
2024/02/02 13:20:38;;;;;;;11.63;4.77;;;;;;;;;;783940;178;816821;-65
2024/02/02 13:23:10;;;;;;;12.10;5.93;;;;;;;;;;778225;178;919154;-65
2024/02/02 13:25:30;;;;;;;16.80;5.18;;;;;;;;;;778293;178;919188;-65
2024/02/02 13:27:56;;;;;;;11.07;4.87;;;;;;;;;;787751;177;918398;-65
2024/02/02 13:30:22;;;;;;;16.93;7.90;;;;;;;;;;777656;177;919166;-65
2024/02/02 13:32:48;;;;;;;17.30;5.90;;;;;;;;;;776385;178;818057;-65
2024/02/02 13:35:15;;;;;;;16.67;5.77;;;;;;;;;;785441;178;855517;-67
2024/02/02 13:37:42;;;;;;;14.00;5.80;;;;;;;;;;783559;178;615784;-64
2024/02/02 13:40:09;;;;;;;12.30;5.37;;;;;;;;;;784315;178;915263;-67
2024/02/02 13:42:36;;;;;;;17.03;6.80;;;;;;;;;;783436;176;918235;-67
2024/02/02 13:45:06;;;;;;;10.10;4.97;;;;;;;;;;776872;177;1533996;-64
2024/02/02 13:47:33;;;;;;;15.53;6.00;;;;;;;;;;784991;177;708682;-67
2024/02/02 13:49:58;;;;;;;22.43;6.70;;;;;;;;;;779849;177;818934;-65
2024/02/02 13:52:24;;;;;;;14.80;5.83;;;;;;;;;;782269;178;907352;-64
2024/02/02 13:54:50;;;;;;;29.47;7.00;;;;;;;;;;781650;178;816459;-65
2024/02/02 13:57:16;;;;;;;26.20;5.43;;;;;;;;;;778037;178;963978;-65
2024/02/02 13:59:42;;;;;;;12.33;6.03;;;;;;;;;;785570;178;892917;-64
2024/02/02 14:02:08;;;;;;;15.97;5.87;;;;;;;;;;781281;177;983638;-64
2024/02/02 14:04:33;;;;;;;12.27;5.40;;;;;;;;;;779364;178;918974;-64
2024/02/02 14:07:00;;;;;;;16.67;8.10;;;;;;;;;;782627;177;816092;-64
2024/02/02 14:09:25;;;;;;;17.00;5.63;;;;;;;;;;773359;179;877781;-64
2024/02/02 14:12:06;;;;;;;11.00;5.57;;;;;;;;;;772552;178;925890;-64
2024/02/02 14:14:33;;;;;;;12.37;5.15;;;;;;;;;;777879;178;892027;-64
2024/02/02 14:17:02;;;;;;;14.17;5.90;;;;;;;;;;780627;177;1006465;-65